Аэропорт: Стригино. Нижний Новгород

ICAO: UWGG

METAR:
2018/11/19 10:00
UWGG 191000Z 33003MPS 9999 OVC007 01/01 Q1027 R36R/290050 TEMPO 2000 SNRA OVC006
METAR:
2018/11/19 09:22
TAF UWGG 190753Z 1909/2009 32003MPS 5000 -SNRA BR OVC011 TX01/1909Z TNM03/2004Z 
      TEMPO 1909/1915 2500 -SHSNRA BKN007CB